Time;durP1;ratioP1;P1;durP2;ratioP2;P2;SDS_P1;SDS_P2;PMS_P1;PMS_P2;Temp;Humidity;BMP_temperature;BMP_pressure;BME280_temperature;BME280_humidity;BME280_pressure;Samples;Min_cycle;Max_cycle;Signal;HPM_P1;HPM_P2
2022/01/04 00:00:08;;;;;;;0.25;0.20;;;;;;;5.02;100.00;99818.63;5011065;28;20045;-76
2022/01/04 00:02:36;;;;;;;;;;;;;;;5.02;100.00;99822.88;5011694;28;20100;-74
2022/01/04 00:05:05;;;;;;;0.30;0.30;;;;;;;4.99;100.00;99827.88;5010659;28;19921;-75
2022/01/04 00:07:34;;;;;;;0.30;0.20;;;;;;;4.99;100.00;99833.91;5011623;28;20132;-74
2022/01/04 00:10:03;;;;;;;0.65;0.25;;;;;;;4.98;100.00;99834.69;5010287;28;20103;-76
2022/01/04 00:15:18;;;;;;;2.92;0.25;;;;;;;5.00;100.00;99843.31;4991087;28;20058;-80
2022/01/04 00:17:46;;;;;;;4.63;0.40;;;;;;;4.91;100.00;99844.69;4998233;28;20046;-81
2022/01/04 00:20:15;;;;;;;0.57;0.30;;;;;;;4.92;100.00;99872.03;4998312;28;20408;-80
2022/01/04 00:22:44;;;;;;;1.05;0.30;;;;;;;4.88;100.00;99865.94;5004895;28;20522;-79
2022/01/04 00:25:12;;;;;;;2.17;0.40;;;;;;;4.85;100.00;99875.19;4990524;28;20053;-76
2022/01/04 00:27:41;;;;;;;0.90;0.25;;;;;;;4.77;100.00;99874.91;4996027;28;20131;-76
2022/01/04 00:30:10;;;;;;;0.32;0.30;;;;;;;4.82;100.00;99902.44;4999594;28;20047;-77
2022/01/04 00:32:40;;;;;;;1.00;0.30;;;;;;;4.84;100.00;99912.78;4990539;28;20054;-76
2022/01/04 00:35:10;;;;;;;1.50;0.47;;;;;;;4.81;100.00;99921.22;5000954;28;20384;-77
2022/01/04 00:37:39;;;;;;;0.38;0.15;;;;;;;4.79;100.00;99920.28;5010066;28;20054;-79
2022/01/04 00:40:08;;;;;;;0.25;0.20;;;;;;;4.80;100.00;99921.16;5001998;28;20050;-80
2022/01/04 00:42:37;;;;;;;1.40;0.75;;;;;;;4.76;100.00;99915.00;5007838;28;20050;-80
2022/01/04 00:45:06;;;;;;;0.43;0.20;;;;;;;4.66;100.00;99906.94;5000000;28;20053;-79
2022/01/04 00:49:09;;;;;;;0.30;0.22;;;;;;;4.62;100.00;99921.28;5012116;28;20133;-79
2022/01/04 00:50:35;;;;;;;0.63;0.20;;;;;;;4.59;100.00;99928.88;5001931;28;20158;-79
2022/01/04 00:53:04;;;;;;;0.90;0.28;;;;;;;4.52;100.00;99924.31;4990883;28;20108;-77
2022/01/04 00:55:33;;;;;;;0.65;0.30;;;;;;;4.51;100.00;99932.78;4991111;28;20078;-77
2022/01/04 00:58:02;;;;;;;1.10;0.15;;;;;;;4.43;100.00;99929.06;4990976;28;20078;-76
2022/01/04 01:00:30;;;;;;;0.63;0.22;;;;;;;4.34;100.00;99930.44;4991002;28;20062;-76
2022/01/04 01:02:59;;;;;;;0.75;0.20;;;;;;;4.35;100.00;99937.31;4990903;28;20066;-74
2022/01/04 01:05:28;;;;;;;0.20;0.20;;;;;;;4.25;100.00;99919.81;4997324;28;20046;-77
2022/01/04 01:07:58;;;;;;;0.10;0.10;;;;;;;4.17;100.00;99906.69;5001494;28;20070;-76
2022/01/04 01:10:43;;;;;;;0.75;0.30;;;;;;;4.16;100.00;99912.63;4989354;28;20104;-77
2022/01/04 01:13:12;;;;;;;0.00;0.00;;;;;;;3.98;100.00;99893.94;4988931;28;20082;-77
2022/01/04 01:15:44;;;;;;;0.10;0.10;;;;;;;3.90;100.00;99862.03;5005182;28;20050;-78
2022/01/04 01:18:13;;;;;;;1.55;0.15;;;;;;;3.87;100.00;99864.44;4997291;28;20146;-78
2022/01/04 01:20:42;;;;;;;0.20;0.10;;;;;;;3.82;100.00;99883.84;4985460;28;20050;-77
2022/01/04 01:23:12;;;;;;;0.55;0.30;;;;;;;3.78;100.00;99901.66;4995972;28;20050;-78
2022/01/04 01:25:40;;;;;;;0.45;0.30;;;;;;;3.74;100.00;99906.56;4992077;28;20114;-81
2022/01/04 01:28:09;;;;;;;0.10;0.10;;;;;;;3.72;100.00;99873.22;4991407;28;20054;-77
2022/01/04 01:30:40;;;;;;;0.77;0.15;;;;;;;3.73;100.00;99863.88;4994505;28;20088;-74
2022/01/04 01:33:09;;;;;;;1.00;0.32;;;;;;;3.70;100.00;99862.06;4994112;28;20125;-75
2022/01/04 01:35:38;;;;;;;0.82;0.20;;;;;;;3.66;100.00;99870.41;4993977;28;20105;-73
2022/01/04 01:38:08;;;;;;;0.13;0.13;;;;;;;3.64;100.00;99883.94;4994326;28;20148;-74
2022/01/04 01:40:40;;;;;;;0.20;0.10;;;;;;;3.51;100.00;99898.75;4994104;28;20061;-75
2022/01/04 01:43:09;;;;;;;0.20;0.20;;;;;;;3.46;100.00;99904.47;4996073;28;20053;-73
2022/01/04 01:45:38;;;;;;;0.22;0.20;;;;;;;3.44;100.00;99914.66;4995421;28;20538;-74
2022/01/04 01:48:07;;;;;;;2.60;0.50;;;;;;;3.40;100.00;99928.09;4993819;28;20166;-75
2022/01/04 01:50:36;;;;;;;0.55;0.47;;;;;;;3.27;100.00;99929.22;4993528;28;20106;-73
2022/01/04 01:53:05;;;;;;;2.55;0.90;;;;;;;3.22;100.00;99943.47;4993270;28;20117;-76
2022/01/04 01:55:34;;;;;;;0.50;0.50;;;;;;;3.12;100.00;99937.06;4994473;28;20082;-75
2022/01/04 01:58:05;;;;;;;1.38;0.95;;;;;;;3.04;100.00;99946.06;4994338;28;20066;-76
2022/01/04 02:00:33;;;;;;;2.45;1.55;;;;;;;3.13;100.00;99974.59;4993863;28;20060;-73
2022/01/04 02:03:02;;;;;;;2.53;0.90;;;;;;;3.12;100.00;99972.88;4992750;28;20093;-73
2022/01/04 02:05:31;;;;;;;1.27;0.70;;;;;;;3.12;100.00;99983.09;4981281;28;20443;-73
2022/01/04 02:08:02;;;;;;;1.02;0.82;;;;;;;3.15;100.00;99987.47;4994196;28;20054;-78
2022/01/04 02:10:31;;;;;;;0.93;0.63;;;;;;;3.20;100.00;100006.44;5001902;28;20046;-73
2022/01/04 02:13:00;;;;;;;1.08;0.60;;;;;;;3.26;100.00;100000.75;4989206;28;20046;-73
2022/01/04 02:15:33;;;;;;;1.20;0.82;;;;;;;3.33;100.00;100013.00;4986079;28;20107;-73
2022/01/04 02:18:01;;;;;;;3.60;0.52;;;;;;;3.38;100.00;100020.91;4993726;28;20050;-74
2022/01/04 02:20:32;;;;;;;0.45;0.30;;;;;;;3.35;100.00;100008.84;4993229;28;20054;-73
2022/01/04 02:23:00;;;;;;;1.02;0.68;;;;;;;3.34;100.00;100019.88;4993529;28;20062;-72
2022/01/04 02:25:29;;;;;;;1.50;0.70;;;;;;;3.34;100.00;100013.09;4993483;28;20578;-74
2022/01/04 02:27:58;;;;;;;0.85;0.80;;;;;;;3.36;100.00;100013.16;4992982;28;20456;-72
2022/01/04 02:30:26;;;;;;;0.90;0.60;;;;;;;3.35;100.00;100006.28;4993558;28;20085;-72
2022/01/04 02:32:55;;;;;;;0.50;0.50;;;;;;;3.38;100.00;100010.66;4985633;28;20523;-72
2022/01/04 02:35:26;;;;;;;1.42;0.70;;;;;;;3.37;100.00;100002.13;5000203;28;20492;-72
2022/01/04 02:37:57;;;;;;;0.45;0.30;;;;;;;3.39;100.00;100017.53;5006365;28;20109;-72
2022/01/04 02:40:26;;;;;;;0.32;0.32;;;;;;;3.40;100.00;100030.41;4993180;28;20050;-73
2022/01/04 02:42:55;;;;;;;0.60;0.40;;;;;;;3.42;100.00;100033.03;4992631;28;20042;-73
2022/01/04 02:45:24;;;;;;;0.20;0.20;;;;;;;3.38;100.00;100023.47;4996010;28;20051;-76
2022/01/04 02:47:53;;;;;;;2.50;0.80;;;;;;;3.35;100.00;100031.88;4993096;28;20050;-76
2022/01/04 02:50:21;;;;;;;1.52;0.50;;;;;;;3.35;100.00;100036.97;4995472;28;20050;-78
2022/01/04 02:52:50;;;;;;;0.45;0.30;;;;;;;3.35;100.00;100048.06;4993948;28;20050;-79
2022/01/04 02:55:20;;;;;;;0.70;0.40;;;;;;;3.34;100.00;100053.09;4993914;28;20544;-80
2022/01/04 02:57:49;;;;;;;0.60;0.50;;;;;;;3.30;100.00;100058.91;4993813;28;20046;-81
2022/01/04 03:00:18;;;;;;;0.77;0.50;;;;;;;3.25;100.00;100073.13;4980591;28;20074;-78
2022/01/04 03:02:47;;;;;;;2.10;0.70;;;;;;;3.21;100.00;100077.25;4993770;28;20065;-78
2022/01/04 03:05:16;;;;;;;1.83;0.98;;;;;;;3.17;100.00;100077.03;4994980;28;20054;-79
2022/01/04 03:07:45;;;;;;;2.15;0.50;;;;;;;3.13;100.00;100071.75;4994018;28;20046;-79
2022/01/04 03:10:13;;;;;;;0.57;0.43;;;;;;;3.12;100.00;100093.00;4992681;28;20055;-78
2022/01/04 03:12:44;;;;;;;1.05;0.63;;;;;;;3.09;100.00;100095.41;4994540;28;20082;-81
2022/01/04 03:15:13;;;;;;;0.40;0.40;;;;;;;3.07;100.00;100101.22;4993142;28;20054;-82
2022/01/04 03:17:42;;;;;;;0.90;0.50;;;;;;;3.04;100.00;100098.53;4993514;28;20105;-78
2022/01/04 03:20:12;;;;;;;0.20;0.20;;;;;;;3.02;100.00;100101.00;4992984;28;20049;-77
2022/01/04 03:22:40;;;;;;;1.27;0.73;;;;;;;3.01;100.00;100096.72;4979067;28;20057;-76
2022/01/04 03:25:11;;;;;;;1.10;0.50;;;;;;;2.97;100.00;100099.91;4992973;28;20081;-77
2022/01/04 03:27:39;;;;;;;0.35;0.25;;;;;;;2.96;100.00;100098.19;4992000;28;20050;-78
2022/01/04 03:30:11;;;;;;;0.40;0.30;;;;;;;2.95;100.00;100104.06;4992800;28;20054;-78
2022/01/04 03:32:40;;;;;;;0.98;0.77;;;;;;;2.90;100.00;100108.09;4992097;28;20455;-78
2022/01/04 03:35:09;;;;;;;6.22;0.80;;;;;;;2.94;100.00;100126.19;4992252;28;20050;-78
2022/01/04 03:37:38;;;;;;;1.88;0.70;;;;;;;2.96;100.00;100130.53;4992318;28;20064;-77
2022/01/04 03:40:07;;;;;;;1.65;0.90;;;;;;;2.94;100.00;100140.66;4993452;28;20046;-79
2022/01/04 03:42:36;;;;;;;0.75;0.70;;;;;;;2.93;100.00;100139.78;4993797;28;20054;-77
2022/01/04 03:45:04;;;;;;;1.45;0.60;;;;;;;2.93;100.00;100141.44;4993608;28;20563;-77
2022/01/04 03:47:35;;;;;;;1.40;0.95;;;;;;;2.97;100.00;100145.91;4994361;28;20042;-79
2022/01/04 03:50:04;;;;;;;1.85;0.95;;;;;;;2.99;100.00;100154.53;4992323;28;20058;-78
2022/01/04 03:52:35;;;;;;;0.65;0.47;;;;;;;2.96;100.00;100164.63;4992133;28;20054;-79
2022/01/04 03:55:04;;;;;;;0.63;0.50;;;;;;;2.97;100.00;100157.81;4991903;28;20061;-80
2022/01/04 03:57:33;;;;;;;1.38;0.70;;;;;;;2.94;100.00;100164.53;4991412;28;20089;-77
2022/01/04 04:00:01;;;;;;;0.65;0.52;;;;;;;2.95;100.00;100165.41;4991621;28;20046;-78
2022/01/04 04:02:30;;;;;;;0.50;0.50;;;;;;;2.87;100.00;100159.91;4991544;28;20582;-78
2022/01/04 04:05:00;;;;;;;0.80;0.75;;;;;;;2.97;100.00;100173.16;4991926;28;20061;-78
2022/01/04 04:07:28;;;;;;;0.93;0.50;;;;;;;2.96;100.00;100169.72;4992300;28;20500;-79
2022/01/04 04:09:57;;;;;;;0.90;0.70;;;;;;;2.96;100.00;100179.94;4991686;28;20042;-77
2022/01/04 04:12:25;;;;;;;0.50;0.45;;;;;;;2.95;100.00;100183.28;5006775;28;20094;-79
2022/01/04 04:14:54;;;;;;;1.10;0.50;;;;;;;2.92;100.00;100188.25;5011311;28;20569;-78
2022/01/04 04:17:22;;;;;;;1.05;0.60;;;;;;;2.90;100.00;100205.19;5011328;28;20480;-77
2022/01/04 04:19:51;;;;;;;1.38;0.60;;;;;;;2.87;100.00;100210.16;5011301;28;20112;-77
2022/01/04 04:22:21;;;;;;;0.85;0.43;;;;;;;2.83;100.00;100211.66;5010934;28;20382;-77
2022/01/04 04:24:49;;;;;;;0.68;0.65;;;;;;;2.82;100.00;100214.13;5010912;28;20105;-77
2022/01/04 04:27:18;;;;;;;0.80;0.60;;;;;;;2.79;100.00;100216.53;5011082;28;20100;-77
2022/01/04 04:29:46;;;;;;;0.95;0.80;;;;;;;2.80;100.00;100233.63;5011380;28;20054;-78
2022/01/04 04:32:15;;;;;;;0.60;0.50;;;;;;;2.79;100.00;100236.97;5010946;28;20053;-79
2022/01/04 04:34:43;;;;;;;1.17;0.73;;;;;;;2.77;100.00;100230.91;5026943;28;20053;-77
2022/01/04 04:37:12;;;;;;;0.52;0.52;;;;;;;2.78;100.00;100240.34;5031581;28;20053;-79
2022/01/04 04:39:42;;;;;;;1.00;0.68;;;;;;;2.79;100.00;100249.75;5032386;28;20046;-78
2022/01/04 04:42:11;;;;;;;1.70;0.95;;;;;;;2.80;100.00;100249.84;5031100;28;20045;-82
2022/01/04 04:44:39;;;;;;;0.85;0.65;;;;;;;2.84;100.00;100258.50;5030112;28;20522;-79
2022/01/04 04:47:08;;;;;;;2.47;0.60;;;;;;;2.91;100.00;100268.28;5033763;28;20072;-82
2022/01/04 04:49:36;;;;;;;1.35;0.88;;;;;;;2.95;100.00;100270.19;5030810;28;20092;-83
2022/01/04 04:52:05;;;;;;;1.63;1.13;;;;;;;2.97;100.00;100275.38;5021872;28;20173;-80
2022/01/04 04:54:34;;;;;;;1.58;1.00;;;;;;;3.03;100.00;100275.72;5034449;28;20083;-81
2022/01/04 04:57:04;;;;;;;0.95;0.85;;;;;;;3.05;100.00;100279.22;5034867;28;20073;-78
2022/01/04 04:59:33;;;;;;;1.35;0.75;;;;;;;3.04;100.00;100275.75;5035021;28;20057;-80
2022/01/04 05:02:01;;;;;;;1.10;0.85;;;;;;;3.07;100.00;100281.06;5039514;28;20052;-80
2022/01/04 05:04:30;;;;;;;2.05;1.02;;;;;;;3.11;100.00;100292.31;5054436;28;20049;-73
2022/01/04 05:06:58;;;;;;;0.85;0.68;;;;;;;3.15;100.00;100295.09;5023413;28;20049;-75
2022/01/04 05:09:26;;;;;;;1.42;0.55;;;;;;;3.21;100.00;100288.53;5033536;28;20037;-79
2022/01/04 05:11:55;;;;;;;1.77;0.75;;;;;;;3.23;100.00;100292.06;5035928;28;20124;-78
2022/01/04 05:14:25;;;;;;;1.30;0.70;;;;;;;3.24;100.00;100307.47;5034347;28;20068;-75
2022/01/04 05:16:54;;;;;;;1.63;0.80;;;;;;;3.27;100.00;100307.63;5033662;28;20104;-74
2022/01/04 05:19:22;;;;;;;1.10;0.70;;;;;;;3.30;100.00;100309.50;5034043;28;20085;-76
2022/01/04 05:21:51;;;;;;;0.75;0.63;;;;;;;3.36;100.00;100320.88;5034170;28;20091;-75
2022/01/04 05:24:19;;;;;;;0.90;0.73;;;;;;;3.41;100.00;100328.78;5033216;28;20103;-75
2022/01/04 05:26:48;;;;;;;1.23;0.95;;;;;;;3.48;100.00;100340.22;5034056;28;20459;-77
2022/01/04 05:29:16;;;;;;;1.20;0.80;;;;;;;3.53;100.00;100349.91;5034225;28;20077;-78
2022/01/04 05:31:47;;;;;;;1.65;0.98;;;;;;;3.59;100.00;100356.13;5033673;28;20107;-79
2022/01/04 05:34:15;;;;;;;1.85;1.10;;;;;;;3.62;100.00;100357.16;5034060;28;20069;-78
2022/01/04 05:36:44;;;;;;;0.80;0.55;;;;;;;3.65;100.00;100348.78;5034337;28;20184;-80
2022/01/04 05:39:12;;;;;;;1.98;0.63;;;;;;;3.65;100.00;100351.31;5033835;28;20042;-78
2022/01/04 05:41:41;;;;;;;1.00;0.63;;;;;;;3.69;100.00;100363.47;5027879;28;20050;-80
2022/01/04 05:44:09;;;;;;;0.70;0.57;;;;;;;3.68;100.00;100367.69;5013585;28;20058;-79
2022/01/04 05:46:38;;;;;;;0.57;0.57;;;;;;;3.70;100.00;100363.53;5019950;28;20045;-79
2022/01/04 05:49:08;;;;;;;0.35;0.30;;;;;;;3.68;100.00;100370.25;5037111;28;20321;-79
2022/01/04 05:51:37;;;;;;;1.38;0.47;;;;;;;3.71;100.00;100369.53;5033644;28;20049;-82
2022/01/04 05:54:06;;;;;;;0.85;0.70;;;;;;;3.73;100.00;100379.06;5033322;28;20053;-79
2022/01/04 05:56:35;;;;;;;1.08;0.88;;;;;;;3.74;100.00;100385.06;5033967;28;20045;-79
2022/01/04 05:59:03;;;;;;;1.10;0.75;;;;;;;3.71;100.00;100387.44;5034032;28;20049;-77
2022/01/04 06:01:32;;;;;;;0.60;0.40;;;;;;;3.74;100.00;100369.69;5033207;28;20071;-78
2022/01/04 06:04:00;;;;;;;0.80;0.40;;;;;;;3.75;100.00;100376.56;5025551;28;20053;-77
2022/01/04 06:06:30;;;;;;;0.65;0.52;;;;;;;3.75;100.00;100368.88;5028537;28;20115;-79
2022/01/04 06:08:59;;;;;;;0.93;0.63;;;;;;;3.78;100.00;100384.41;5033458;28;20042;-78
2022/01/04 06:11:44;;;;;;;3.53;0.98;;;;;;;3.80;100.00;100385.34;5028685;28;20115;-78
2022/01/04 06:16:57;;;;;;;1.40;0.70;;;;;;;3.86;100.00;100408.69;5033515;28;20134;-77
2022/01/04 06:19:26;;;;;;;0.70;0.55;;;;;;;3.82;100.00;100418.69;5034843;28;20108;-79
2022/01/04 06:21:56;;;;;;;1.58;1.02;;;;;;;3.81;100.00;100427.19;5033946;28;20049;-76
2022/01/04 06:24:24;;;;;;;3.00;0.80;;;;;;;3.83;100.00;100435.84;5033873;28;20045;-77
2022/01/04 06:26:54;;;;;;;1.13;0.80;;;;;;;3.82;100.00;100440.03;5033192;28;20097;-77
2022/01/04 06:29:22;;;;;;;1.15;0.47;;;;;;;3.84;100.00;100455.50;5033174;28;20049;-79
2022/01/04 06:31:51;;;;;;;1.30;0.68;;;;;;;3.78;100.00;100445.84;5033675;28;20037;-81
2022/01/04 06:34:20;;;;;;;1.33;1.02;;;;;;;3.80;100.00;100457.00;5032203;28;20439;-82
2022/01/04 06:36:49;;;;;;;2.65;1.00;;;;;;;3.81;100.00;100458.78;5033149;28;20499;-82
2022/01/04 06:39:19;;;;;;;1.80;0.70;;;;;;;3.81;100.00;100478.38;5032874;28;20069;-78
2022/01/04 06:41:47;;;;;;;1.15;0.88;;;;;;;3.80;100.00;100474.91;5032910;28;20498;-80
2022/01/04 06:44:16;;;;;;;1.88;1.10;;;;;;;3.78;100.00;100487.66;5032473;28;20088;-77
2022/01/04 06:46:45;;;;;;;3.13;0.95;;;;;;;3.81;100.00;100478.38;5033370;28;20125;-77
2022/01/04 06:49:14;;;;;;;0.82;0.40;;;;;;;3.80;100.00;100490.28;5035789;28;20468;-80
2022/01/04 06:51:44;;;;;;;1.85;0.52;;;;;;;3.82;100.00;100492.91;5032178;28;20499;-77
2022/01/04 06:54:13;;;;;;;0.70;0.47;;;;;;;3.81;100.00;100504.84;5019922;28;20121;-75
2022/01/04 06:56:46;;;;;;;1.85;0.80;;;;;;;3.79;100.00;100509.00;5031605;28;20046;-76
2022/01/04 06:59:14;;;;;;;1.08;0.60;;;;;;;3.82;100.00;100526.19;5020644;28;20049;-78
2022/01/04 07:01:44;;;;;;;0.88;0.60;;;;;;;3.84;100.00;100540.81;5029891;28;20500;-80
2022/01/04 07:04:13;;;;;;;1.05;0.55;;;;;;;3.85;100.00;100536.59;5032086;28;20053;-83
2022/01/04 07:06:41;;;;;;;1.52;0.77;;;;;;;3.85;100.00;100540.03;5032062;28;20045;-81
2022/01/04 07:09:10;;;;;;;1.02;0.52;;;;;;;3.88;100.00;100547.88;5031532;28;20053;-79
2022/01/04 07:11:39;;;;;;;0.85;0.60;;;;;;;3.89;100.00;100554.75;5032761;28;20477;-79
2022/01/04 07:14:10;;;;;;;0.82;0.38;;;;;;;3.89;100.00;100552.19;5031155;28;20124;-78
2022/01/04 07:16:38;;;;;;;0.40;0.32;;;;;;;3.89;100.00;100554.75;5031887;28;20135;-80
2022/01/04 07:19:08;;;;;;;1.27;0.45;;;;;;;3.88;100.00;100555.56;5031554;28;20045;-72
2022/01/04 07:21:37;;;;;;;1.10;0.43;;;;;;;3.86;100.00;100561.41;5032037;28;20127;-73
2022/01/04 07:24:06;;;;;;;2.15;0.60;;;;;;;3.76;100.00;100544.69;5031282;28;20466;-74
2022/01/04 07:26:35;;;;;;;0.55;0.40;;;;;;;3.83;100.00;100563.81;5031520;28;20041;-73
2022/01/04 07:29:03;;;;;;;0.57;0.52;;;;;;;3.81;100.00;100570.50;5031819;28;20085;-73
2022/01/04 07:31:34;;;;;;;0.63;0.32;;;;;;;3.78;100.00;100571.22;5031240;28;20064;-73
2022/01/04 07:34:05;;;;;;;0.65;0.63;;;;;;;3.76;100.00;100573.69;5031196;28;20095;-72
2022/01/04 07:36:34;;;;;;;0.85;0.55;;;;;;;3.74;100.00;100584.66;5031927;28;20057;-73
2022/01/04 07:39:02;;;;;;;1.50;0.38;;;;;;;3.75;100.00;100586.41;5031108;28;20049;-73
2022/01/04 07:41:31;;;;;;;3.42;0.40;;;;;;;3.76;100.00;100595.84;5017989;28;20053;-72
2022/01/04 07:43:59;;;;;;;1.95;0.47;;;;;;;3.77;100.00;100593.34;5031152;28;20557;-73
2022/01/04 07:46:28;;;;;;;2.05;0.60;;;;;;;3.79;100.00;100603.69;5026736;28;20089;-73
2022/01/04 07:48:58;;;;;;;0.43;0.30;;;;;;;3.78;100.00;100612.19;5022624;28;20147;-73
2022/01/04 07:51:33;;;;;;;0.70;0.40;;;;;;;3.78;100.00;100599.38;5034881;28;20568;-74
2022/01/04 07:54:09;;;;;;;2.50;0.50;;;;;;;3.80;100.00;100610.56;5031351;28;20057;-73
2022/01/04 07:56:38;;;;;;;0.60;0.40;;;;;;;3.78;100.00;100613.06;5031589;28;20089;-72
2022/01/04 07:59:07;;;;;;;1.33;0.38;;;;;;;3.77;100.00;100620.63;5031185;28;20077;-76
2022/01/04 08:01:35;;;;;;;0.65;0.60;;;;;;;3.75;100.00;100625.66;5028164;28;20045;-73
2022/01/04 08:04:05;;;;;;;0.75;0.30;;;;;;;3.73;100.00;100629.84;5019185;28;20084;-73
2022/01/04 08:06:34;;;;;;;1.05;0.55;;;;;;;3.70;100.00;100639.00;5016870;28;20054;-73
2022/01/04 08:09:02;;;;;;;0.70;0.50;;;;;;;3.70;100.00;100639.88;5031060;28;20045;-72
2022/01/04 08:11:31;;;;;;;0.45;0.32;;;;;;;3.71;100.00;100657.03;5032541;28;20125;-72
2022/01/04 08:14:00;;;;;;;0.70;0.30;;;;;;;3.71;100.00;100656.13;5017361;28;20045;-72
2022/01/04 08:16:28;;;;;;;0.88;0.35;;;;;;;3.72;100.00;100663.88;5032220;28;20502;-73
2022/01/04 08:18:57;;;;;;;0.43;0.20;;;;;;;3.73;100.00;100649.41;5033186;28;20056;-72
2022/01/04 08:21:27;;;;;;;1.17;0.60;;;;;;;3.73;100.00;100650.31;5032077;28;20069;-73
2022/01/04 08:23:56;;;;;;;0.75;0.50;;;;;;;3.73;100.00;100659.66;5031200;28;20495;-72
2022/01/04 08:26:24;;;;;;;0.68;0.40;;;;;;;3.74;100.00;100656.31;5033460;28;20038;-72
2022/01/04 08:28:53;;;;;;;1.15;0.38;;;;;;;3.74;100.00;100667.41;5033858;28;20107;-72
2022/01/04 08:31:21;;;;;;;0.43;0.30;;;;;;;3.77;100.00;100666.69;5023266;28;20144;-71
2022/01/04 08:33:50;;;;;;;1.00;0.40;;;;;;;3.77;100.00;100682.06;5034919;28;20049;-73
2022/01/04 08:36:18;;;;;;;2.05;0.30;;;;;;;3.76;100.00;100685.44;5021429;28;20092;-72
2022/01/04 08:38:48;;;;;;;0.30;0.20;;;;;;;3.77;100.00;100682.06;5035014;28;20049;-72
2022/01/04 08:41:17;;;;;;;0.73;0.20;;;;;;;3.76;100.00;100682.88;5034296;28;20100;-72
2022/01/04 08:43:45;;;;;;;1.70;0.20;;;;;;;3.80;100.00;100696.69;5034716;28;20077;-72
2022/01/04 08:46:14;;;;;;;0.45;0.30;;;;;;;3.78;100.00;100706.88;5034879;28;20091;-71
2022/01/04 08:48:42;;;;;;;2.33;0.52;;;;;;;3.81;100.00;100708.72;5026131;28;20077;-71
2022/01/04 08:51:11;;;;;;;0.85;0.40;;;;;;;3.81;100.00;100714.72;5032669;28;20104;-72
2022/01/04 08:53:44;;;;;;;0.40;0.32;;;;;;;3.82;100.00;100719.03;5035256;28;20131;-72
2022/01/04 08:56:13;;;;;;;;;;;;;;;3.84;100.00;100737.91;5035294;28;20056;-72
2022/01/04 08:58:41;;;;;;;0.60;0.40;;;;;;;3.84;100.00;100749.81;5034393;28;19921;-73
2022/01/04 09:01:10;;;;;;;0.10;0.10;;;;;;;3.78;100.00;100751.25;5034970;28;20085;-73
2022/01/04 09:03:38;;;;;;;1.10;0.32;;;;;;;3.80;100.00;100753.88;5020046;28;20055;-71
2022/01/04 09:06:08;;;;;;;2.38;0.57;;;;;;;3.78;100.00;100747.81;5034916;28;20050;-72
2022/01/04 09:08:37;;;;;;;2.20;0.50;;;;;;;3.86;100.00;100764.47;5034236;28;20160;-73
2022/01/04 09:11:06;;;;;;;4.40;0.52;;;;;;;3.87;100.00;100776.50;5035015;28;20073;-72
2022/01/04 09:13:39;;;;;;;0.93;0.40;;;;;;;3.88;100.00;100778.25;5034212;28;20053;-73
2022/01/04 09:18:55;;;;;;;0.50;0.20;;;;;;;3.90;100.00;100796.25;5033959;28;20104;-72
2022/01/04 09:21:28;;;;;;;0.98;0.50;;;;;;;3.91;100.00;100804.00;5034117;28;20045;-72
2022/01/04 09:23:59;;;;;;;0.22;0.22;;;;;;;3.91;100.00;100804.00;5034561;28;20047;-72
2022/01/04 09:26:28;;;;;;;0.70;0.40;;;;;;;3.90;100.00;100811.63;5033612;28;20042;-73
2022/01/04 09:28:58;;;;;;;0.65;0.50;;;;;;;3.90;100.00;100807.38;5033811;28;20049;-72
2022/01/04 09:31:30;;;;;;;2.65;0.35;;;;;;;3.92;100.00;100802.34;5034250;28;20111;-73
2022/01/04 09:34:00;;;;;;;0.90;0.28;;;;;;;3.94;100.00;100810.97;5033652;28;20052;-74
2022/01/04 09:36:30;;;;;;;0.50;0.20;;;;;;;3.97;100.00;100806.06;5033248;28;20136;-72
2022/01/04 09:38:59;;;;;;;1.05;0.28;;;;;;;3.95;100.00;100816.19;5032956;28;20042;-72
2022/01/04 09:41:27;;;;;;;0.55;0.28;;;;;;;3.94;100.00;100819.56;5029952;28;20104;-72
2022/01/04 09:43:58;;;;;;;0.17;0.17;;;;;;;3.94;100.00;100810.97;5022995;28;20107;-73
2022/01/04 09:46:28;;;;;;;1.67;0.22;;;;;;;3.91;100.00;100806.56;5033526;28;20054;-73
2022/01/04 09:48:57;;;;;;;1.23;0.20;;;;;;;3.91;100.00;100814.25;5033582;28;20049;-72
2022/01/04 09:51:28;;;;;;;0.75;0.38;;;;;;;3.91;100.00;100821.94;5034309;28;20049;-73
2022/01/04 09:53:57;;;;;;;0.20;0.20;;;;;;;3.90;100.00;100822.72;5035853;28;20286;-73
2022/01/04 09:56:25;;;;;;;0.17;0.17;;;;;;;3.91;100.00;100821.94;5034087;28;20053;-73
2022/01/04 09:58:54;;;;;;;0.10;0.10;;;;;;;3.88;100.00;100831.13;5028786;28;20474;-73
2022/01/04 10:01:27;;;;;;;3.45;0.10;;;;;;;3.93;100.00;100837.38;5024647;28;20100;-73
2022/01/04 10:03:55;;;;;;;0.10;0.10;;;;;;;3.90;100.00;100848.34;5033528;28;20129;-72
2022/01/04 10:06:24;;;;;;;0.00;0.00;;;;;;;3.90;100.00;100855.13;5033829;28;20041;-71
2022/01/04 10:08:55;;;;;;;0.20;0.20;;;;;;;3.90;100.00;100858.56;5032476;28;20085;-70
2022/01/04 10:11:34;;;;;;;1.13;0.13;;;;;;;3.87;100.00;100857.50;5033409;28;20045;-70
2022/01/04 10:14:24;;;;;;;2.45;0.40;;;;;;;3.81;100.00;100855.47;5010927;28;20558;-70
2022/01/04 10:16:54;;;;;;;0.50;0.20;;;;;;;3.78;100.00;100863.88;5004837;28;20049;-70
2022/01/04 10:19:30;;;;;;;1.90;0.30;;;;;;;3.78;100.00;100878.34;5014631;28;20050;-71
2022/01/04 10:22:20;;;;;;;0.88;0.40;;;;;;;3.77;100.00;100886.81;5013579;28;20045;-72
2022/01/04 10:24:50;;;;;;;0.77;0.38;;;;;;;3.76;100.00;100890.16;5013303;28;20078;-71
2022/01/04 10:27:27;;;;;;;0.63;0.30;;;;;;;3.76;100.00;100890.16;5013367;28;20090;-71
2022/01/04 10:30:25;;;;;;;0.40;0.20;;;;;;;3.77;100.00;100897.03;5013508;28;20045;-71
2022/01/04 10:32:58;;;;;;;0.45;0.10;;;;;;;3.80;100.00;100907.44;4979216;28;20058;-71
2022/01/04 10:35:38;;;;;;;0.82;0.20;;;;;;;3.84;100.00;100911.97;5005947;28;20060;-71
2022/01/04 10:38:16;;;;;;;0.00;0.00;;;;;;;3.84;100.00;100931.56;5012562;28;20057;-70
2022/01/04 10:40:47;;;;;;;0.68;0.40;;;;;;;3.85;100.00;100935.88;5000540;28;20120;-71
2022/01/04 10:43:17;;;;;;;1.70;0.47;;;;;;;3.84;100.00;100935.00;5012634;28;20503;-71
2022/01/04 10:45:53;;;;;;;0.20;0.10;;;;;;;3.83;100.00;100933.25;5012903;28;20053;-71
2022/01/04 10:48:25;;;;;;;1.73;0.45;;;;;;;3.79;100.00;100931.28;4998968;28;20500;-71
2022/01/04 10:50:55;;;;;;;2.78;0.20;;;;;;;3.81;100.00;100939.94;5012276;28;20054;-70
2022/01/04 10:53:30;;;;;;;0.95;0.13;;;;;;;3.80;100.00;100939.84;5014735;28;20053;-70
2022/01/04 10:56:00;;;;;;;1.38;0.20;;;;;;;3.81;100.00;100954.44;5013035;28;20558;-71
2022/01/04 10:58:35;;;;;;;0.08;0.05;;;;;;;3.87;100.00;100965.00;5012364;28;20081;-71
2022/01/04 11:01:07;;;;;;;0.32;0.20;;;;;;;3.91;100.00;100962.72;5012571;28;20116;-70
2022/01/04 11:03:43;;;;;;;0.98;0.25;;;;;;;3.91;100.00;100949.91;5012015;28;20050;-71
2022/01/04 11:06:14;;;;;;;1.25;0.30;;;;;;;3.94;100.00;100952.69;5012585;28;20061;-71
2022/01/04 11:08:44;;;;;;;0.55;0.30;;;;;;;3.99;100.00;100946.16;4999150;28;20076;-70
2022/01/04 11:11:16;;;;;;;0.75;0.30;;;;;;;4.03;100.00;100941.19;5012410;28;20050;-71
2022/01/04 11:13:45;;;;;;;0.40;0.30;;;;;;;4.07;100.00;100953.41;5030950;28;20123;-71
2022/01/04 11:16:13;;;;;;;0.98;0.43;;;;;;;4.10;100.00;100958.69;5032241;28;20103;-70
2022/01/04 11:18:46;;;;;;;1.17;0.55;;;;;;;4.09;100.00;100962.94;5031544;28;20080;-70
2022/01/04 11:21:16;;;;;;;1.27;0.10;;;;;;;4.09;100.00;100946.69;5031702;28;20121;-69
2022/01/04 11:23:44;;;;;;;3.20;0.10;;;;;;;4.08;100.00;100958.63;5030913;28;20053;-71
2022/01/04 11:26:15;;;;;;;1.73;0.30;;;;;;;4.06;100.00;100954.19;5031712;28;20107;-70
2022/01/04 11:28:44;;;;;;;0.45;0.10;;;;;;;4.01;100.00;100958.16;5031822;28;20076;-70
2022/01/04 11:31:37;;;;;;;0.73;0.30;;;;;;;3.98;100.00;100957.16;5012153;28;20115;-70
2022/01/04 11:34:19;;;;;;;0.30;0.15;;;;;;;4.03;100.00;100957.44;5018924;28;20406;-70
2022/01/04 11:36:51;;;;;;;10.88;1.13;;;;;;;4.06;100.00;100952.53;5022175;28;20045;-72
2022/01/04 11:39:30;;;;;;;0.77;0.30;;;;;;;4.10;100.00;100966.38;5031387;28;21318;-72
2022/01/04 11:41:59;;;;;;;3.13;0.82;;;;;;;4.12;100.00;100970.81;5031001;28;20046;-72
2022/01/04 11:44:31;;;;;;;0.45;0.30;;;;;;;4.15;100.00;100980.34;5031972;28;20499;-72
2022/01/04 11:47:14;;;;;;;1.15;0.80;;;;;;;4.14;100.00;100970.88;5030936;28;20506;-71